createdAt,value
2018-02-13T00:01:11.034Z,10.10
2018-02-13T00:03:38.719Z,10.27
2018-02-13T00:06:06.326Z,10.43
2018-02-13T00:08:33.962Z,9.93
2018-02-13T00:11:01.598Z,10.60
2018-02-13T00:13:29.252Z,9.80
2018-02-13T00:19:14.836Z,9.67
2018-02-13T00:21:42.462Z,9.70
2018-02-13T00:24:10.877Z,10.00
2018-02-13T00:26:38.517Z,9.67
2018-02-13T00:29:06.133Z,9.93
2018-02-13T00:31:33.788Z,10.47
2018-02-13T00:34:01.438Z,10.83
2018-02-13T00:36:29.117Z,10.43
2018-02-13T00:38:57.543Z,10.00
2018-02-13T00:41:25.163Z,11.23
2018-02-13T00:43:52.808Z,10.67
2018-02-13T00:46:20.450Z,10.57
2018-02-13T00:48:48.872Z,11.03
2018-02-13T00:51:16.530Z,9.83
2018-02-13T00:53:44.212Z,10.33
2018-02-13T00:56:11.830Z,10.07
2018-02-13T00:58:39.505Z,10.07
2018-02-13T01:01:07.191Z,11.23
2018-02-13T01:03:34.857Z,10.70
2018-02-13T01:06:02.470Z,9.63
2018-02-13T01:08:30.135Z,10.50
2018-02-13T01:10:58.523Z,10.70
2018-02-13T01:13:26.966Z,10.03
2018-02-13T01:15:54.630Z,10.87
2018-02-13T01:18:22.266Z,10.50
2018-02-13T01:20:50.698Z,10.53
2018-02-13T01:23:18.325Z,10.90
2018-02-13T01:25:46.723Z,10.23
2018-02-13T01:28:14.366Z,10.47
2018-02-13T01:30:41.990Z,11.03
2018-02-13T01:33:09.681Z,10.33
2018-02-13T01:35:37.317Z,10.33
2018-02-13T01:38:05.747Z,10.10
2018-02-13T01:40:33.428Z,10.03
2018-02-13T01:43:01.063Z,9.83
2018-02-13T01:45:29.484Z,9.77
2018-02-13T01:47:57.116Z,10.13
2018-02-13T01:50:25.626Z,10.47
2018-02-13T01:52:53.266Z,10.87
2018-02-13T01:55:20.948Z,10.23
2018-02-13T01:57:48.606Z,10.10
2018-02-13T02:00:16.235Z,10.13
2018-02-13T02:02:43.895Z,10.23
2018-02-13T02:05:12.266Z,9.73
2018-02-13T02:07:39.918Z,9.80
2018-02-13T02:10:07.582Z,10.30
2018-02-13T02:12:35.246Z,9.73
2018-02-13T02:15:02.927Z,9.80
2018-02-13T02:17:30.566Z,9.03
2018-02-13T02:19:58.256Z,9.70
2018-02-13T02:22:25.923Z,9.60
2018-02-13T02:24:53.552Z,9.53
2018-02-13T02:27:21.239Z,9.60
2018-02-13T02:29:49.639Z,10.23
2018-02-13T02:32:18.099Z,9.40
2018-02-13T02:34:45.726Z,9.77
2018-02-13T02:37:13.368Z,9.57
2018-02-13T02:39:41.024Z,10.43
2018-02-13T02:42:08.663Z,9.00
2018-02-13T02:44:36.323Z,9.93
2018-02-13T02:47:04.760Z,9.60
2018-02-13T02:49:32.386Z,10.07
2018-02-13T02:52:00.057Z,8.97
2018-02-13T02:54:27.696Z,9.43
2018-02-13T02:56:56.138Z,9.23
2018-02-13T02:59:23.775Z,8.73
2018-02-13T03:01:52.178Z,8.80
2018-02-13T03:04:20.601Z,8.63
2018-02-13T03:06:48.263Z,8.80
2018-02-13T03:09:15.902Z,8.90
2018-02-13T03:11:43.589Z,10.03
2018-02-13T03:14:12.000Z,9.40
2018-02-13T03:16:39.673Z,9.30
2018-02-13T03:19:07.313Z,9.07
2018-02-13T03:21:34.966Z,9.50
2018-02-13T03:24:02.606Z,9.80
2018-02-13T03:26:30.247Z,9.70
2018-02-13T03:28:58.671Z,9.40
2018-02-13T03:31:26.306Z,10.20
2018-02-13T03:33:53.962Z,10.17
2018-02-13T03:36:21.622Z,9.63
2018-02-13T03:38:49.257Z,9.20
2018-02-13T03:41:16.939Z,9.80
2018-02-13T03:43:44.581Z,9.20
2018-02-13T03:46:12.230Z,9.20
2018-02-13T03:48:39.874Z,9.23
2018-02-13T03:51:07.508Z,9.30
2018-02-13T03:53:35.979Z,9.80
2018-02-13T03:56:03.614Z,9.23
2018-02-13T03:58:31.247Z,8.97
2018-02-13T04:00:58.905Z,9.63
2018-02-13T04:03:26.564Z,9.17
2018-02-13T04:05:54.237Z,9.17
2018-02-13T04:08:21.901Z,9.50
2018-02-13T04:10:49.551Z,9.07
2018-02-13T04:13:17.205Z,8.57
2018-02-13T04:15:45.636Z,8.77
2018-02-13T04:18:13.254Z,8.87
2018-02-13T04:20:40.899Z,8.80
2018-02-13T04:23:08.535Z,8.83
2018-02-13T04:25:36.176Z,8.97
2018-02-13T04:28:04.594Z,9.30
2018-02-13T04:30:32.239Z,8.40
2018-02-13T04:32:59.894Z,9.10
2018-02-13T04:35:27.494Z,8.70
2018-02-13T04:37:55.910Z,8.90
2018-02-13T04:40:23.564Z,8.73
2018-02-13T04:42:51.951Z,10.03
2018-02-13T04:45:20.358Z,9.67
2018-02-13T04:47:48.004Z,9.17
2018-02-13T04:50:15.690Z,9.43
2018-02-13T04:52:44.150Z,10.83
2018-02-13T04:55:11.807Z,10.47
2018-02-13T04:57:39.462Z,10.53
2018-02-13T05:00:07.241Z,9.73
2018-02-13T05:02:34.902Z,10.20
2018-02-13T05:05:03.336Z,9.93
2018-02-13T05:07:31.061Z,10.23
2018-02-13T05:09:58.808Z,10.17
2018-02-13T05:12:26.447Z,10.60
2018-02-13T05:14:54.128Z,10.03
2018-02-13T05:17:21.810Z,10.27
2018-02-13T05:19:49.446Z,9.63
2018-02-13T05:22:17.855Z,10.33
2018-02-13T05:24:45.466Z,10.60
2018-02-13T05:27:13.095Z,10.17
2018-02-13T05:29:40.758Z,10.20
2018-02-13T05:32:08.415Z,9.83
2018-02-13T05:34:36.853Z,10.30
2018-02-13T05:37:04.500Z,9.73
2018-02-13T05:39:32.118Z,9.83
2018-02-13T05:42:00.566Z,9.43
2018-02-13T05:44:28.186Z,9.10
2018-02-13T05:46:55.859Z,10.00
2018-02-13T05:49:23.643Z,9.03
2018-02-13T05:51:51.294Z,9.60
2018-02-13T05:54:18.934Z,9.73
2018-02-13T05:56:47.350Z,9.73
2018-02-13T05:59:15.008Z,9.50
2018-02-13T06:01:42.630Z,9.97
2018-02-13T06:04:10.562Z,9.20
2018-02-13T06:06:38.239Z,10.10
2018-02-13T06:09:05.890Z,10.27
2018-02-13T06:11:33.555Z,10.23
2018-02-13T06:14:01.347Z,9.80
2018-02-13T06:16:29.763Z,10.13
2018-02-13T06:18:57.416Z,10.13
2018-02-13T06:21:25.800Z,10.50
2018-02-13T06:23:55.052Z,9.67
2018-02-13T06:26:22.674Z,9.70
2018-02-13T06:28:51.132Z,9.87
2018-02-13T06:31:18.792Z,9.40
2018-02-13T06:33:46.505Z,8.80
2018-02-13T06:36:14.196Z,9.83
2018-02-13T06:38:41.794Z,9.77
2018-02-13T06:41:10.202Z,9.93
2018-02-13T06:43:37.815Z,9.83
2018-02-13T06:46:05.486Z,10.23
2018-02-13T06:48:33.157Z,9.90
2018-02-13T06:51:00.766Z,9.63
2018-02-13T06:53:29.195Z,10.77
2018-02-13T06:55:56.811Z,10.20
2018-02-13T06:58:24.463Z,10.30
2018-02-13T07:00:52.193Z,9.90
2018-02-13T07:03:20.566Z,9.90
2018-02-13T07:05:48.220Z,9.63
2018-02-13T07:08:15.822Z,9.37
2018-02-13T07:10:44.226Z,9.73
2018-02-13T07:13:12.637Z,9.67
2018-02-13T07:15:40.271Z,9.20
2018-02-13T07:18:07.974Z,9.83
2018-02-13T07:20:35.620Z,10.67
2018-02-13T07:23:03.290Z,10.30
2018-02-13T07:25:30.945Z,10.40
2018-02-13T07:27:58.784Z,10.07
2018-02-13T07:30:26.439Z,9.60
2018-02-13T07:32:54.843Z,10.40
2018-02-13T07:35:22.490Z,9.80
2018-02-13T07:37:50.915Z,10.37
2018-02-13T07:40:18.518Z,9.63
2018-02-13T07:42:46.180Z,9.90
2018-02-13T07:45:13.831Z,10.33
2018-02-13T07:47:41.479Z,10.53
2018-02-13T07:50:09.137Z,10.97
2018-02-13T07:52:36.779Z,10.30
2018-02-13T07:55:04.470Z,10.83
2018-02-13T07:57:32.115Z,10.17
2018-02-13T07:59:59.787Z,9.43
2018-02-13T08:02:27.480Z,9.83
2018-02-13T08:04:55.138Z,9.00
2018-02-13T08:07:22.864Z,8.90
2018-02-13T08:09:50.489Z,9.03
2018-02-13T08:12:18.178Z,9.40
2018-02-13T08:14:45.859Z,8.43
2018-02-13T08:17:13.843Z,8.30
2018-02-13T08:19:41.518Z,8.87
2018-02-13T08:22:09.150Z,8.77
2018-02-13T08:24:37.614Z,8.00
2018-02-13T08:27:05.270Z,8.43
2018-02-13T08:29:33.751Z,8.80
2018-02-13T08:32:01.393Z,8.37
2018-02-13T08:34:29.033Z,8.13
2018-02-13T08:36:56.691Z,8.33
2018-02-13T08:39:24.411Z,8.43
2018-02-13T08:41:52.798Z,8.90
2018-02-13T08:44:20.446Z,8.83
2018-02-13T08:46:48.084Z,8.90
2018-02-13T08:49:15.994Z,8.57
2018-02-13T08:51:43.624Z,8.13
2018-02-13T08:54:11.256Z,8.33
2018-02-13T08:56:39.686Z,8.00
2018-02-13T08:59:07.341Z,7.80
2018-02-13T09:01:35.357Z,8.50
2018-02-13T09:04:03.014Z,7.80
2018-02-13T09:06:30.819Z,7.93
2018-02-13T09:08:58.475Z,8.40
2018-02-13T09:11:26.138Z,8.00
2018-02-13T09:13:53.769Z,8.10
2018-02-13T09:16:21.433Z,8.63
2018-02-13T09:18:49.126Z,8.43
2018-02-13T09:21:16.758Z,8.13
2018-02-13T09:23:44.439Z,8.50
2018-02-13T09:26:12.058Z,8.50
2018-02-13T09:28:40.483Z,8.30
2018-02-13T09:31:08.150Z,8.13
2018-02-13T09:33:35.775Z,8.47
2018-02-13T09:36:03.446Z,8.47
2018-02-13T09:38:31.093Z,8.60
2018-02-13T09:40:59.702Z,7.90
2018-02-13T09:43:27.346Z,8.63
2018-02-13T09:45:54.962Z,8.43
2018-02-13T09:48:22.614Z,8.90
2018-02-13T09:57:02.167Z,8.70
2018-02-13T09:59:29.817Z,8.20
2018-02-13T10:01:57.460Z,8.50
2018-02-13T10:04:25.090Z,8.57
2018-02-13T10:06:52.728Z,8.67
2018-02-13T10:09:21.514Z,8.60
2018-02-13T10:11:49.148Z,7.60
2018-02-13T10:14:16.826Z,8.40
2018-02-13T10:16:44.489Z,7.80
2018-02-13T10:19:12.752Z,7.90
2018-02-13T10:21:40.448Z,7.60
2018-02-13T10:24:08.099Z,8.10
2018-02-13T10:26:35.725Z,8.17
2018-02-13T10:29:04.151Z,7.80
2018-02-13T10:31:31.820Z,7.57
2018-02-13T10:33:59.450Z,6.73
2018-02-13T10:36:27.125Z,6.83
2018-02-13T10:38:54.792Z,7.13
2018-02-13T10:41:22.412Z,7.03
2018-02-13T10:43:50.197Z,6.90
2018-02-13T10:46:17.865Z,6.60
2018-02-13T10:48:45.487Z,6.57
2018-02-13T10:51:13.135Z,5.43
2018-02-13T10:53:40.796Z,5.20
2018-02-13T10:56:08.402Z,4.60
2018-02-13T10:58:36.074Z,5.40
2018-02-13T11:01:09.396Z,5.13
2018-02-13T11:03:37.043Z,4.67
2018-02-13T11:06:04.730Z,4.23
2018-02-13T11:08:32.343Z,3.33
2018-02-13T11:11:00.771Z,3.63
2018-02-13T11:13:28.431Z,3.30
2018-02-13T11:15:57.798Z,3.00
2018-02-13T11:18:25.453Z,3.17
2018-02-13T11:20:53.180Z,3.50
2018-02-13T11:23:21.563Z,3.50
2018-02-13T11:25:49.982Z,3.53
2018-02-13T11:28:22.399Z,3.53
2018-02-13T11:30:50.076Z,3.60
2018-02-13T11:33:17.761Z,3.17
2018-02-13T11:35:45.389Z,3.40
2018-02-13T11:38:13.071Z,2.97
2018-02-13T11:40:40.726Z,3.40
2018-02-13T11:43:09.117Z,3.23
2018-02-13T11:45:36.738Z,3.73
2018-02-13T11:48:04.462Z,3.70
2018-02-13T11:50:32.126Z,3.93
2018-02-13T11:52:59.763Z,4.13
2018-02-13T11:55:27.427Z,4.10
2018-02-13T11:57:55.068Z,4.23
2018-02-13T12:00:22.785Z,3.50
2018-02-13T12:02:50.417Z,3.53
2018-02-13T12:05:18.046Z,3.90
2018-02-13T12:07:45.722Z,3.70
2018-02-13T12:10:13.783Z,3.67
2018-02-13T12:12:41.412Z,4.07
2018-02-13T12:15:09.855Z,4.17
2018-02-13T12:17:37.498Z,3.50
2018-02-13T12:20:05.126Z,3.40
2018-02-13T12:22:32.788Z,3.00
2018-02-13T12:25:00.472Z,2.50
2018-02-13T12:27:28.202Z,2.57
2018-02-13T12:29:55.875Z,2.40
2018-02-13T12:32:23.534Z,2.67
2018-02-13T12:34:51.205Z,2.80
2018-02-13T12:37:19.639Z,2.87
2018-02-13T12:39:47.314Z,3.20
2018-02-13T12:42:14.959Z,3.10
2018-02-13T12:44:42.614Z,3.20
2018-02-13T12:47:11.039Z,3.40
2018-02-13T12:49:38.658Z,3.27
2018-02-13T12:52:06.335Z,2.53
2018-02-13T12:54:34.009Z,2.43
2018-02-13T12:57:01.651Z,2.20
2018-02-13T12:59:29.367Z,2.10
2018-02-13T13:01:57.014Z,2.50
2018-02-13T13:04:24.675Z,2.60
2018-02-13T13:06:52.407Z,2.63
2018-02-13T13:09:20.831Z,3.10
2018-02-13T13:11:48.452Z,3.40
2018-02-13T13:14:16.148Z,3.37
2018-02-13T13:16:44.563Z,3.43
2018-02-13T13:19:12.181Z,3.37
2018-02-13T13:21:39.891Z,2.60
2018-02-13T13:24:08.351Z,2.60
2018-02-13T13:26:35.967Z,2.40
2018-02-13T13:29:04.399Z,2.07
2018-02-13T13:31:32.031Z,2.00
2018-02-13T13:34:00.423Z,2.27
2018-02-13T13:36:28.872Z,2.13
2018-02-13T13:38:56.533Z,2.20
2018-02-13T13:41:24.136Z,3.00
2018-02-13T13:43:51.852Z,2.63
2018-02-13T13:46:19.536Z,2.37
2018-02-13T13:48:47.167Z,2.20
2018-02-13T13:51:14.888Z,3.20
2018-02-13T13:53:42.531Z,2.73
2018-02-13T13:56:10.951Z,2.40
2018-02-13T13:58:38.603Z,2.20
2018-02-13T14:01:07.049Z,1.93
2018-02-13T14:03:34.679Z,2.27
2018-02-13T14:06:02.351Z,2.50
2018-02-13T14:08:30.011Z,2.70
2018-02-13T14:10:58.394Z,2.30
2018-02-13T14:13:26.022Z,2.57
2018-02-13T14:15:53.668Z,2.30
2018-02-13T14:18:21.320Z,2.40
2018-02-13T14:20:50.644Z,2.27
2018-02-13T14:23:19.163Z,1.97
2018-02-13T14:25:47.002Z,2.23
2018-02-13T14:28:14.680Z,2.20
2018-02-13T14:30:43.154Z,2.20
2018-02-13T14:33:18.534Z,2.33
2018-02-13T14:35:46.586Z,2.40
2018-02-13T14:38:15.028Z,2.50
2018-02-13T14:49:48.145Z,2.97
2018-02-13T14:52:15.819Z,2.93
2018-02-13T14:54:43.479Z,2.80
2018-02-13T14:57:11.872Z,2.50
2018-02-13T14:59:40.305Z,2.80
2018-02-13T15:02:07.955Z,2.00
2018-02-13T15:04:36.532Z,2.50
2018-02-13T15:07:04.972Z,2.53
2018-02-13T15:09:32.610Z,2.83
2018-02-13T15:12:00.262Z,2.63
2018-02-13T15:14:27.949Z,2.57
2018-02-13T15:16:58.912Z,2.80
2018-02-13T15:19:26.559Z,2.70
2018-02-13T15:21:54.208Z,2.33
2018-02-13T15:24:21.863Z,3.50
2018-02-13T15:26:49.461Z,2.40
2018-02-13T15:29:17.091Z,2.37
2018-02-13T15:31:44.795Z,2.67
2018-02-13T15:34:12.428Z,2.53
2018-02-13T15:36:40.843Z,2.40
2018-02-13T15:39:08.535Z,2.80
2018-02-13T15:41:37.027Z,2.33
2018-02-13T15:44:04.683Z,2.40
2018-02-13T15:46:32.363Z,2.40
2018-02-13T15:48:59.986Z,2.90
2018-02-13T15:51:27.852Z,2.57
2018-02-13T15:53:56.312Z,2.50
2018-02-13T15:56:23.922Z,2.80
2018-02-13T15:58:51.585Z,2.67
2018-02-13T16:01:19.323Z,2.77
2018-02-13T16:03:46.944Z,2.60
2018-02-13T16:06:14.918Z,2.50
2018-02-13T16:08:42.618Z,2.83
2018-02-13T16:11:10.228Z,2.63
2018-02-13T16:13:37.907Z,2.97
2018-02-13T16:16:05.608Z,2.70
2018-02-13T16:18:33.228Z,2.80
2018-02-13T16:21:01.706Z,2.50
2018-02-13T16:23:29.317Z,2.73
2018-02-13T16:25:57.012Z,2.73
2018-02-13T16:28:26.710Z,2.60
2018-02-13T16:30:54.363Z,2.80
2018-02-13T16:33:22.796Z,2.60
2018-02-13T16:35:51.258Z,2.20
2018-02-13T16:38:18.921Z,2.50
2018-02-13T16:40:47.321Z,2.60
2018-02-13T16:43:15.322Z,2.60
2018-02-13T16:45:43.091Z,2.70
2018-02-13T16:48:10.723Z,2.37
2018-02-13T16:50:38.376Z,2.67
2018-02-13T16:53:06.187Z,2.63
2018-02-13T16:55:33.789Z,2.70
2018-02-13T16:58:01.446Z,2.70
2018-02-13T17:00:30.448Z,2.60
2018-02-13T17:02:58.847Z,3.93
2018-02-13T17:05:27.255Z,4.67
2018-02-13T17:07:54.911Z,5.60
2018-02-13T17:10:23.707Z,4.10
2018-02-13T17:12:51.386Z,4.87
2018-02-13T17:15:19.796Z,7.27
2018-02-13T17:17:47.411Z,5.80
2018-02-13T17:20:15.079Z,4.13
2018-02-13T17:22:42.732Z,4.47
2018-02-13T17:25:10.338Z,3.33
2018-02-13T17:27:37.991Z,2.83
2018-02-13T17:30:05.643Z,3.03
2018-02-13T17:32:33.316Z,3.70
2018-02-13T17:35:01.006Z,3.40
2018-02-13T17:37:28.682Z,3.40
2018-02-13T17:39:56.329Z,3.07
2018-02-13T17:42:24.754Z,2.60
2018-02-13T17:44:52.467Z,2.60
2018-02-13T17:47:20.079Z,2.80
2018-02-13T17:49:47.710Z,2.57
2018-02-13T17:52:15.367Z,2.63
2018-02-13T17:54:42.997Z,2.53
2018-02-13T17:57:10.650Z,3.17
2018-02-13T17:59:39.127Z,3.43
2018-02-13T18:02:06.757Z,3.23
2018-02-13T18:04:34.421Z,3.53
2018-02-13T18:07:21.807Z,2.80
2018-02-13T18:09:49.475Z,3.27
2018-02-13T18:12:17.135Z,3.00
2018-02-13T18:14:44.754Z,2.70
2018-02-13T18:17:13.167Z,3.90
2018-02-13T18:19:41.042Z,3.53
2018-02-13T18:22:08.671Z,3.23
2018-02-13T18:24:36.303Z,3.00
2018-02-13T18:27:03.978Z,2.80
2018-02-13T18:29:31.604Z,3.00
2018-02-13T18:31:59.247Z,3.27
2018-02-13T18:34:26.912Z,3.13
2018-02-13T18:36:54.570Z,3.63
2018-02-13T18:39:22.251Z,3.97
2018-02-13T18:41:49.944Z,4.97
2018-02-13T18:44:17.572Z,5.00
2018-02-13T18:46:45.973Z,4.80
2018-02-13T18:49:14.635Z,4.00
2018-02-13T18:51:42.387Z,4.20
2018-02-13T18:54:10.015Z,3.57
2018-02-13T18:56:38.474Z,3.90
2018-02-13T18:59:06.104Z,3.67
2018-02-13T19:01:53.783Z,3.43
2018-02-13T19:04:21.465Z,3.67
2018-02-13T19:12:49.815Z,3.13
2018-02-13T19:15:17.576Z,3.43
2018-02-13T19:17:45.181Z,3.57
2018-02-13T19:20:12.824Z,3.63
2018-02-13T19:22:40.643Z,3.90
2018-02-13T19:25:08.330Z,3.83
2018-02-13T19:33:29.491Z,3.83
2018-02-13T19:35:57.155Z,4.20
2018-02-13T19:38:24.811Z,3.73
2018-02-13T19:40:53.061Z,3.77
2018-02-13T19:43:20.723Z,3.67
2018-02-13T19:45:48.332Z,4.67
2018-02-13T19:48:16.755Z,4.60
2018-02-13T19:50:44.408Z,4.20
2018-02-13T19:53:12.052Z,4.67
2018-02-13T19:55:39.739Z,4.40
2018-02-13T19:58:08.188Z,4.10
2018-02-13T20:00:35.829Z,4.07
2018-02-13T20:03:04.246Z,4.13
2018-02-13T20:05:32.141Z,3.83
2018-02-13T20:08:04.287Z,3.97
2018-02-13T20:10:31.953Z,3.97
2018-02-13T20:13:00.367Z,3.47
2018-02-13T20:15:28.034Z,3.67
2018-02-13T20:17:55.744Z,4.07
2018-02-13T20:20:23.407Z,4.20
2018-02-13T20:22:51.092Z,3.70
2018-02-13T20:25:18.734Z,4.63
2018-02-13T20:27:46.351Z,4.20
2018-02-13T20:30:14.029Z,4.00
2018-02-13T20:32:41.648Z,4.10
2018-02-13T20:35:09.331Z,4.17
2018-02-13T20:37:36.991Z,4.63
2018-02-13T20:40:05.580Z,5.37
2018-02-13T20:42:33.248Z,4.83
2018-02-13T20:45:01.614Z,5.13
2018-02-13T20:47:29.265Z,5.27
2018-02-13T20:49:56.920Z,4.87
2018-02-13T20:52:24.560Z,5.10
2018-02-13T20:54:52.971Z,4.73
2018-02-13T20:57:20.611Z,4.80
2018-02-13T20:59:48.438Z,4.63
2018-02-13T21:02:16.088Z,4.80
2018-02-13T21:04:43.741Z,4.70
2018-02-13T21:07:11.662Z,5.07
2018-02-13T21:12:40.676Z,4.33
2018-02-13T21:15:09.106Z,4.37
2018-02-13T21:17:36.765Z,4.33
2018-02-13T21:20:04.497Z,4.10
2018-02-13T21:22:32.159Z,4.33
2018-02-13T21:24:59.813Z,4.50
2018-02-13T21:27:27.470Z,4.53
2018-02-13T21:29:55.121Z,4.67
2018-02-13T21:32:23.555Z,4.40
2018-02-13T21:34:51.360Z,4.13
2018-02-13T21:37:27.552Z,4.40
2018-02-13T21:39:55.263Z,4.27
2018-02-13T21:42:22.907Z,4.60
2018-02-13T21:44:51.364Z,4.57
2018-02-13T21:47:19.317Z,4.07
2018-02-13T21:49:47.030Z,4.87
2018-02-13T21:52:14.665Z,4.67
2018-02-13T21:54:42.283Z,5.37
2018-02-13T21:57:10.003Z,4.23
2018-02-13T21:59:38.625Z,4.30
2018-02-13T22:02:07.010Z,4.13
2018-02-13T22:04:34.611Z,4.17
2018-02-13T22:07:02.191Z,4.80
2018-02-13T22:09:30.012Z,5.07
2018-02-13T22:11:57.656Z,4.87
2018-02-13T22:14:25.270Z,4.63
2018-02-13T22:16:52.871Z,4.47
2018-02-13T22:19:20.881Z,4.40
2018-02-13T22:21:48.482Z,4.50
2018-02-13T22:24:16.861Z,5.00
2018-02-13T22:26:44.471Z,5.40
2018-02-13T22:29:12.079Z,4.97
2018-02-13T22:31:39.999Z,4.73
2018-02-13T22:34:07.687Z,5.20
2018-02-13T22:36:36.025Z,5.00
2018-02-13T22:39:13.978Z,5.27
2018-02-13T22:41:42.849Z,4.70
2018-02-13T22:44:11.274Z,5.33
2018-02-13T22:46:40.158Z,5.13
2018-02-13T22:49:07.734Z,5.23
2018-02-13T22:51:36.142Z,5.27
2018-02-13T22:54:04.513Z,5.10
2018-02-13T22:56:32.259Z,5.10
2018-02-13T22:58:59.869Z,5.97
2018-02-13T23:01:27.451Z,6.17
2018-02-13T23:03:55.825Z,6.50
2018-02-13T23:06:23.434Z,5.40
2018-02-13T23:08:51.009Z,5.53
2018-02-13T23:11:18.609Z,4.50
2018-02-13T23:13:46.333Z,4.90
2018-02-13T23:16:13.980Z,5.17
2018-02-13T23:18:41.627Z,5.00
2018-02-13T23:21:09.209Z,5.23
2018-02-13T23:23:36.807Z,5.40
2018-02-13T23:26:04.391Z,5.27
2018-02-13T23:28:31.998Z,5.20
2018-02-13T23:30:59.624Z,5.40
2018-02-13T23:33:27.195Z,4.90
2018-02-13T23:35:54.794Z,5.23
2018-02-13T23:38:22.363Z,5.00
2018-02-13T23:40:49.968Z,4.90
2018-02-13T23:43:19.446Z,4.70
2018-02-13T23:45:47.014Z,5.10
2018-02-13T23:48:14.645Z,5.20
2018-02-13T23:50:42.277Z,5.00
2018-02-13T23:53:09.887Z,4.80
2018-02-13T23:55:37.497Z,4.60
2018-02-13T23:58:05.070Z,4.97
